Time;durP1;ratioP1;P1;durP2;ratioP2;P2;SDS_P1;SDS_P2;PMS_P1;PMS_P2;Temp;Humidity;BMP_temperature;BMP_pressure;BME280_temperature;BME280_humidity;BME280_pressure;Samples;Min_cycle;Max_cycle;Signal;HPM_P1;HPM_P2
2022/08/09 00:00:04;;;;;;;17.50;10.85;;;;;;;13.86;97.02;102590.53;5095715;28;20026;-48
2022/08/09 00:02:30;;;;;;;18.53;11.63;;;;;;;13.85;96.91;102588.75;5095642;28;20525;-50
2022/08/09 00:04:55;;;;;;;14.00;10.52;;;;;;;13.79;96.63;102590.25;5094878;28;20032;-49
2022/08/09 00:07:20;;;;;;;14.38;11.05;;;;;;;13.83;96.81;102589.56;5095884;28;20028;-49
2022/08/09 00:09:45;;;;;;;13.93;10.57;;;;;;;13.82;96.93;102587.78;5095638;28;20027;-49
2022/08/09 00:12:11;;;;;;;11.77;10.52;;;;;;;13.75;96.83;102587.44;5094687;28;20028;-49
2022/08/09 00:14:36;;;;;;;16.40;10.43;;;;;;;13.71;96.90;102581.25;5095692;28;20036;-50
2022/08/09 00:17:02;;;;;;;18.05;10.82;;;;;;;13.73;97.08;102589.09;5094963;28;20028;-49
2022/08/09 00:19:27;;;;;;;12.77;10.15;;;;;;;13.69;96.88;102582.88;5094930;28;20024;-50
2022/08/09 00:21:52;;;;;;;12.32;9.57;;;;;;;13.67;97.07;102579.31;5095255;28;20024;-45
2022/08/09 00:24:18;;;;;;;14.52;10.20;;;;;;;13.63;97.26;102582.59;5095117;28;20133;-46
2022/08/09 00:26:43;;;;;;;17.20;10.68;;;;;;;13.62;97.16;102573.97;5094743;28;20059;-47
2022/08/09 00:29:09;;;;;;;14.32;10.13;;;;;;;13.64;97.64;102584.38;5094748;28;20483;-49
2022/08/09 00:31:34;;;;;;;10.68;9.57;;;;;;;13.62;97.40;102581.72;5095349;28;20020;-49
2022/08/09 00:33:59;;;;;;;14.40;10.32;;;;;;;13.58;97.55;102578.91;5094549;28;20107;-49
2022/08/09 00:36:25;;;;;;;11.85;9.48;;;;;;;13.54;97.48;102577.00;5095177;28;20398;-49
2022/08/09 00:38:51;;;;;;;12.55;9.73;;;;;;;13.53;97.65;102585.59;5095515;28;20393;-50
2022/08/09 00:41:20;;;;;;;15.45;10.38;;;;;;;13.49;97.34;102585.47;5094691;28;20107;-48
2022/08/09 00:43:45;;;;;;;16.38;9.13;;;;;;;13.48;97.49;102578.50;5094616;28;20055;-46
2022/08/09 00:46:11;;;;;;;11.48;9.25;;;;;;;13.45;97.48;102578.38;5094307;28;20391;-48
2022/08/09 00:48:37;;;;;;;14.63;10.73;;;;;;;13.48;97.30;102582.81;5094998;28;20042;-46
2022/08/09 00:51:05;;;;;;;13.43;9.77;;;;;;;13.41;97.42;102586.81;5094695;28;20032;-44
2022/08/09 00:53:31;;;;;;;14.45;10.07;;;;;;;13.33;97.07;102572.59;5094504;28;20024;-48
2022/08/09 00:55:56;;;;;;;12.90;10.40;;;;;;;13.31;97.43;102584.56;5094786;28;20047;-49
2022/08/09 00:58:22;;;;;;;14.88;11.18;;;;;;;13.28;97.68;102579.25;5094483;28;20020;-45
2022/08/09 01:00:51;;;;;;;15.50;10.90;;;;;;;13.24;97.49;102586.00;5094220;28;20020;-49
2022/08/09 01:03:40;;;;;;;12.00;10.45;;;;;;;13.21;97.86;102587.56;5094208;28;20024;-48
2022/08/09 01:06:38;;;;;;;15.70;10.25;;;;;;;13.21;98.03;102590.13;5094103;28;20353;-44
2022/08/09 01:09:06;;;;;;;16.48;11.63;;;;;;;13.11;98.44;102594.88;5093890;28;20028;-45
2022/08/09 01:12:05;;;;;;;12.65;10.75;;;;;;;13.10;98.74;102590.53;5094257;28;20114;-45
2022/08/09 01:14:55;;;;;;;15.93;10.68;;;;;;;13.01;98.84;102591.00;5094099;28;20024;-47
2022/08/09 01:17:32;;;;;;;13.75;10.98;;;;;;;13.04;99.39;102587.66;5094173;28;20403;-44
2022/08/09 01:20:03;;;;;;;16.58;10.73;;;;;;;12.99;99.67;102587.44;5093968;28;20028;-45
2022/08/09 01:22:40;;;;;;;14.27;10.30;;;;;;;13.01;100.00;102590.09;5093887;28;20044;-45
2022/08/09 01:25:17;;;;;;;;;;;;;;;13.11;96.42;102591.44;5094286;28;20039;-46
2022/08/09 01:27:46;;;;;;;14.38;11.23;;;;;;;13.01;98.89;102590.09;5093404;28;19916;-46
2022/08/09 01:30:12;;;;;;;15.13;10.88;;;;;;;12.95;99.31;102589.78;5093253;28;20031;-45
2022/08/09 01:32:42;;;;;;;12.77;11.07;;;;;;;12.95;99.94;102587.22;5094249;28;20024;-44
2022/08/09 01:35:23;;;;;;;16.73;11.70;;;;;;;12.96;100.00;102586.41;5093891;28;20028;-49
2022/08/09 01:37:52;;;;;;;14.38;10.90;;;;;;;12.90;100.00;102581.84;5094163;28;20031;-46
2022/08/09 01:40:20;;;;;;;16.20;12.23;;;;;;;12.83;100.00;102578.06;5093608;28;20097;-45
2022/08/09 01:42:46;;;;;;;;;;;;;;;12.94;97.51;102578.56;5093604;28;20051;-46
2022/08/09 01:45:12;;;;;;;17.85;11.77;;;;;;;12.84;99.91;102578.94;5094091;28;19912;-46
2022/08/09 01:47:40;;;;;;;14.93;12.45;;;;;;;12.83;100.00;102579.75;5093700;28;20047;-45
2022/08/09 01:50:07;;;;;;;14.10;11.60;;;;;;;12.81;100.00;102578.81;5092944;28;20024;-49
2022/08/09 01:52:34;;;;;;;15.77;11.68;;;;;;;12.76;100.00;102582.88;5093882;28;20060;-45
2022/08/09 01:55:00;;;;;;;16.33;11.63;;;;;;;12.72;100.00;102583.50;5093367;28;20460;-45
2022/08/09 01:57:36;;;;;;;15.10;12.68;;;;;;;12.77;100.00;102587.22;5092883;28;20046;-46
2022/08/09 02:00:04;;;;;;;15.18;12.52;;;;;;;12.73;100.00;102583.59;5093392;28;20024;-44
2022/08/09 02:02:31;;;;;;;18.30;12.60;;;;;;;12.76;100.00;102594.09;5093688;28;20154;-45
2022/08/09 02:05:03;;;;;;;19.27;13.80;;;;;;;12.73;100.00;102593.97;5092749;28;20468;-47
2022/08/09 02:07:29;;;;;;;14.55;12.25;;;;;;;12.74;100.00;102594.84;5093247;28;20024;-45
2022/08/09 02:10:18;;;;;;;14.80;12.37;;;;;;;12.76;100.00;102594.09;5093168;28;20486;-45
2022/08/09 02:12:45;;;;;;;19.38;12.82;;;;;;;12.69;100.00;102592.00;5093195;28;20472;-46
2022/08/09 02:15:13;;;;;;;16.63;12.25;;;;;;;12.67;100.00;102596.25;5092992;28;20028;-45
2022/08/09 02:17:41;;;;;;;16.15;12.10;;;;;;;12.68;100.00;102596.31;5092736;28;20024;-46
2022/08/09 02:20:07;;;;;;;17.75;11.82;;;;;;;12.66;100.00;102599.63;5093110;28;20024;-45
2022/08/09 02:22:55;;;;;;;14.88;12.38;;;;;;;12.69;100.00;102594.59;5092928;28;20032;-44
2022/08/09 02:25:26;;;;;;;16.23;12.65;;;;;;;12.68;100.00;102585.09;5092644;28;20047;-45
2022/08/09 02:27:55;;;;;;;17.88;11.98;;;;;;;12.66;100.00;102586.69;5093217;28;20024;-45
2022/08/09 02:30:21;;;;;;;15.82;11.98;;;;;;;12.67;100.00;102588.47;5093168;28;20069;-45
2022/08/09 02:32:49;;;;;;;16.50;12.95;;;;;;;12.64;100.00;102586.63;5092646;28;20039;-45
2022/08/09 02:35:21;;;;;;;16.38;12.25;;;;;;;12.65;100.00;102587.50;5092484;28;20467;-45
2022/08/09 02:37:50;;;;;;;17.33;12.40;;;;;;;12.62;100.00;102584.78;5093056;28;20024;-46
2022/08/09 02:40:19;;;;;;;16.15;12.02;;;;;;;12.61;100.00;102588.16;5092008;28;20418;-46
2022/08/09 02:42:48;;;;;;;16.85;12.25;;;;;;;12.63;100.00;102583.97;5092555;28;20061;-44
2022/08/09 02:45:19;;;;;;;19.77;12.23;;;;;;;12.66;100.00;102576.34;5092465;28;20127;-45
2022/08/09 02:47:46;;;;;;;16.30;12.02;;;;;;;12.61;100.00;102583.00;5092604;28;20058;-44
2022/08/09 02:50:43;;;;;;;16.75;12.02;;;;;;;12.59;100.00;102582.03;5092581;28;20028;-44
2022/08/09 02:53:12;;;;;;;;;;;;;;;12.63;99.64;102583.97;5057664;28;20040;-46
2022/08/09 02:55:39;;;;;;;18.00;12.02;;;;;;;12.43;100.00;102582.97;5092827;28;19957;-44
2022/08/09 02:58:07;;;;;;;16.88;12.18;;;;;;;12.40;100.00;102575.94;5092554;28;20024;-45
2022/08/09 03:00:33;;;;;;;15.90;12.70;;;;;;;12.51;100.00;102574.78;5092379;28;20035;-44
2022/08/09 03:02:59;;;;;;;19.13;12.75;;;;;;;12.45;100.00;102587.41;5092709;28;20077;-47
2022/08/09 03:05:25;;;;;;;16.65;12.65;;;;;;;12.36;100.00;102579.19;5092579;28;20028;-45
2022/08/09 03:07:52;;;;;;;14.43;11.40;;;;;;;12.28;100.00;102578.81;5092079;28;20467;-46
2022/08/09 03:10:18;;;;;;;16.35;12.45;;;;;;;12.29;100.00;102582.28;5092151;28;20081;-45
2022/08/09 03:12:46;;;;;;;16.90;12.13;;;;;;;12.26;100.00;102583.00;5092625;28;20498;-47
2022/08/09 03:15:13;;;;;;;17.63;12.85;;;;;;;12.24;100.00;102586.31;5092050;28;20050;-46
2022/08/09 03:17:39;;;;;;;18.10;12.32;;;;;;;12.22;100.00;102577.63;5092361;28;20023;-44
2022/08/09 03:20:06;;;;;;;16.67;12.90;;;;;;;12.21;100.00;102581.88;5092381;28;20028;-47
2022/08/09 03:22:37;;;;;;;16.67;12.32;;;;;;;12.26;100.00;102580.41;5091995;28;20024;-46
2022/08/09 03:25:03;;;;;;;17.35;12.38;;;;;;;12.14;100.00;102580.69;5091885;28;20020;-44
2022/08/09 03:27:31;;;;;;;16.08;12.07;;;;;;;12.12;100.00;102582.34;5092710;28;20032;-45
2022/08/09 03:29:57;;;;;;;20.02;13.35;;;;;;;12.11;100.00;102574.47;5091813;28;20456;-46
2022/08/09 03:32:23;;;;;;;17.20;13.50;;;;;;;12.06;100.00;102575.94;5092219;28;20028;-46
2022/08/09 03:34:49;;;;;;;18.10;12.90;;;;;;;12.06;100.00;102582.00;5091939;28;20391;-45
2022/08/09 03:37:14;;;;;;;20.95;13.63;;;;;;;12.05;100.00;102575.06;5092111;28;20028;-45
2022/08/09 03:39:40;;;;;;;19.10;13.57;;;;;;;12.06;100.00;102587.19;5092483;28;20024;-44
2022/08/09 03:42:05;;;;;;;19.05;13.73;;;;;;;12.08;100.00;102584.66;5091770;28;20079;-44
2022/08/09 03:44:30;;;;;;;19.08;13.88;;;;;;;12.05;100.00;102580.22;5092172;28;20048;-47
2022/08/09 03:46:56;;;;;;;18.67;14.50;;;;;;;12.06;100.00;102582.00;5091931;28;20029;-45
2022/08/09 03:49:24;;;;;;;19.42;13.70;;;;;;;12.02;100.00;102580.09;5091698;28;20028;-44
2022/08/09 03:51:55;;;;;;;18.05;13.70;;;;;;;12.04;100.00;102593.94;5094564;28;20028;-44
2022/08/09 03:54:25;;;;;;;18.65;14.30;;;;;;;11.98;100.00;102588.47;5095882;28;20142;-47
2022/08/09 03:56:50;;;;;;;18.92;13.55;;;;;;;11.97;100.00;102586.72;5095491;28;20028;-46
2022/08/09 03:59:15;;;;;;;20.30;14.73;;;;;;;11.96;100.00;102583.22;5095520;28;20433;-46
2022/08/09 04:01:42;;;;;;;18.23;14.15;;;;;;;11.93;100.00;102584.72;5095816;28;20020;-44
2022/08/09 04:04:08;;;;;;;20.48;15.15;;;;;;;11.94;100.00;102587.41;5094940;28;20032;-45
2022/08/09 04:06:35;;;;;;;21.23;15.15;;;;;;;11.94;100.00;102582.25;5095468;28;20055;-44
2022/08/09 04:09:02;;;;;;;23.15;16.33;;;;;;;11.97;100.00;102577.25;5095742;28;20153;-46
2022/08/09 04:11:43;;;;;;;21.15;15.77;;;;;;;11.95;100.00;102577.94;5095253;28;20021;-44
2022/08/09 04:14:10;;;;;;;18.60;14.48;;;;;;;11.92;100.00;102582.97;5095036;28;20386;-44
2022/08/09 04:16:36;;;;;;;19.40;15.43;;;;;;;11.93;100.00;102575.28;5095554;28;20476;-44
2022/08/09 04:19:01;;;;;;;23.77;15.35;;;;;;;11.91;100.00;102587.22;5094732;28;20112;-44
2022/08/09 04:21:27;;;;;;;18.15;14.30;;;;;;;11.88;100.00;102587.09;5095387;28;20097;-44
2022/08/09 04:23:52;;;;;;;20.42;14.18;;;;;;;11.84;100.00;102580.84;5095396;28;20040;-45
2022/08/09 04:26:17;;;;;;;20.30;14.43;;;;;;;11.83;100.00;102583.38;5094726;28;20471;-46
2022/08/09 04:28:42;;;;;;;21.42;15.80;;;;;;;11.85;100.00;102595.56;5095047;28;20028;-45
2022/08/09 04:31:08;;;;;;;22.17;15.40;;;;;;;11.79;100.00;102597.81;5094523;28;20020;-45
2022/08/09 04:33:33;;;;;;;22.40;15.48;;;;;;;11.85;100.00;102595.56;5095094;28;20115;-45
2022/08/09 04:35:58;;;;;;;26.98;16.50;;;;;;;11.94;100.00;102597.75;5094946;28;20016;-45
2022/08/09 04:38:23;;;;;;;22.23;15.85;;;;;;;11.90;100.00;102600.06;5094483;28;20028;-45
2022/08/09 04:40:49;;;;;;;23.80;16.48;;;;;;;11.88;100.00;102601.69;5095181;28;20032;-44
2022/08/09 04:43:15;;;;;;;23.92;16.15;;;;;;;11.84;100.00;102600.66;5094422;28;20068;-44
2022/08/09 04:45:41;;;;;;;20.05;15.30;;;;;;;11.85;100.00;102605.91;5094615;28;20058;-45
2022/08/09 04:48:07;;;;;;;19.88;15.55;;;;;;;11.86;100.00;102602.50;5094664;28;20450;-44
2022/08/09 04:50:32;;;;;;;22.05;16.02;;;;;;;11.84;100.00;102606.69;5094922;28;20016;-45
2022/08/09 04:52:57;;;;;;;23.15;16.08;;;;;;;11.88;100.00;102609.44;5094180;28;20040;-44
2022/08/09 04:55:22;;;;;;;22.42;16.58;;;;;;;11.90;100.00;102606.13;5094674;28;20460;-44
2022/08/09 04:57:48;;;;;;;26.42;17.85;;;;;;;11.96;100.00;102615.94;5094702;28;20024;-44
2022/08/09 05:00:13;;;;;;;25.27;17.00;;;;;;;11.98;100.00;102614.31;5094051;28;20042;-44
2022/08/09 05:02:40;;;;;;;23.10;16.77;;;;;;;11.99;100.00;102616.09;5094430;28;20479;-44
2022/08/09 05:05:06;;;;;;;26.57;17.87;;;;;;;12.10;100.00;102612.38;5094191;28;20470;-44
2022/08/09 05:07:31;;;;;;;24.48;18.52;;;;;;;12.09;100.00;102613.16;5094148;28;20028;-44
2022/08/09 05:09:56;;;;;;;27.83;17.90;;;;;;;12.14;100.00;102619.47;5094162;28;20031;-45
2022/08/09 05:12:22;;;;;;;26.23;18.15;;;;;;;12.19;100.00;102615.41;5094403;28;20425;-46
2022/08/09 05:14:47;;;;;;;25.65;17.95;;;;;;;12.23;100.00;102626.81;5093878;28;20031;-45
2022/08/09 05:17:12;;;;;;;26.38;18.63;;;;;;;12.31;100.00;102624.63;5093967;28;20608;-44
2022/08/09 05:19:37;;;;;;;28.20;19.17;;;;;;;12.40;100.00;102630.25;5094274;28;20043;-44
2022/08/09 05:22:03;;;;;;;27.42;19.20;;;;;;;12.47;100.00;102622.00;5093674;28;20361;-44
2022/08/09 05:24:28;;;;;;;24.50;18.73;;;;;;;12.56;100.00;102629.31;5094047;28;20024;-44
2022/08/09 05:26:54;;;;;;;29.20;20.13;;;;;;;12.64;100.00;102627.09;5094130;28;20024;-49
2022/08/09 05:29:19;;;;;;;29.15;19.17;;;;;;;12.73;100.00;102626.69;5093500;28;20039;-44
2022/08/09 05:31:46;;;;;;;28.63;19.80;;;;;;;12.80;100.00;102631.38;5093831;28;20454;-46
2022/08/09 05:34:14;;;;;;;28.33;19.70;;;;;;;12.83;100.00;102628.91;5093781;28;20024;-44
2022/08/09 05:36:39;;;;;;;;;;;;;;;12.89;100.00;102633.53;5094077;28;20117;-44
2022/08/09 05:39:04;;;;;;;25.97;19.17;;;;;;;13.00;100.00;102640.06;5093374;28;20365;-44
2022/08/09 05:41:30;;;;;;;27.30;19.30;;;;;;;13.07;100.00;102636.97;5093442;28;20793;-45
2022/08/09 05:43:55;;;;;;;27.95;20.00;;;;;;;13.15;100.00;102642.53;5093396;28;20044;-44
2022/08/09 05:46:20;;;;;;;27.20;19.83;;;;;;;13.23;100.00;102642.91;5093525;28;20069;-44
2022/08/09 05:48:45;;;;;;;28.63;19.08;;;;;;;13.28;100.00;102638.81;5093097;28;20028;-45
2022/08/09 05:51:11;;;;;;;32.63;19.48;;;;;;;13.37;100.00;102647.06;5093652;28;20020;-45
2022/08/09 05:53:36;;;;;;;27.10;18.67;;;;;;;13.43;100.00;102647.34;5093399;28;20024;-46
2022/08/09 05:56:01;;;;;;;26.75;18.25;;;;;;;13.50;100.00;102641.66;5092993;28;20020;-45
2022/08/09 05:58:27;;;;;;;26.65;19.25;;;;;;;13.59;100.00;102640.28;5093343;28;20020;-48
2022/08/09 06:00:52;;;;;;;27.10;19.08;;;;;;;13.64;100.00;102646.56;5093551;28;20028;-44
2022/08/09 06:03:17;;;;;;;26.52;19.85;;;;;;;13.74;100.00;102647.88;5092498;28;20028;-44
2022/08/09 06:05:43;;;;;;;28.13;19.00;;;;;;;13.81;100.00;102645.63;5093487;28;20047;-44
2022/08/09 06:08:08;;;;;;;30.25;18.23;;;;;;;13.90;100.00;102649.44;5093412;28;20024;-45
2022/08/09 06:10:39;;;;;;;24.65;18.52;;;;;;;13.96;100.00;102655.78;5092917;28;20542;-47
2022/08/09 06:13:10;;;;;;;28.60;19.13;;;;;;;14.04;100.00;102653.53;5092689;28;20056;-45
2022/08/09 06:15:35;;;;;;;28.88;18.30;;;;;;;14.14;100.00;102653.13;5093080;28;20467;-45
2022/08/09 06:18:01;;;;;;;23.92;18.23;;;;;;;14.24;100.00;102658.72;5092549;28;20035;-45
2022/08/09 06:20:27;;;;;;;27.40;18.52;;;;;;;14.29;100.00;102652.91;5093020;28;20027;-46
2022/08/09 06:22:52;;;;;;;30.92;18.95;;;;;;;14.38;100.00;102656.72;5093321;28;20100;-45
2022/08/09 06:25:18;;;;;;;28.65;19.33;;;;;;;14.52;100.00;102654.72;5092353;28;20481;-46
2022/08/09 06:27:43;;;;;;;28.08;18.92;;;;;;;14.59;100.00;102664.50;5092897;28;20028;-44
2022/08/09 06:30:10;;;;;;;26.90;17.90;;;;;;;14.72;100.00;102665.94;5092897;28;20031;-45
2022/08/09 06:32:35;;;;;;;27.77;18.08;;;;;;;14.80;100.00;102667.19;5092459;28;20107;-44
2022/08/09 06:35:00;;;;;;;22.23;16.85;;;;;;;14.89;100.00;102666.69;5092879;28;20102;-45
2022/08/09 06:37:26;;;;;;;24.63;17.30;;;;;;;15.00;100.00;102659.31;5092934;28;20486;-45
2022/08/09 06:39:51;;;;;;;25.75;16.48;;;;;;;15.09;100.00;102668.38;5092542;28;20065;-45
2022/08/09 06:42:19;;;;;;;23.92;16.08;;;;;;;15.24;100.00;102662.00;5092445;28;20034;-47
2022/08/09 06:44:44;;;;;;;26.05;15.93;;;;;;;15.33;100.00;102670.16;5092111;28;20070;-45
2022/08/09 06:47:09;;;;;;;23.23;16.50;;;;;;;15.42;100.00;102667.91;5092811;28;20467;-45
2022/08/09 06:49:34;;;;;;;21.42;16.27;;;;;;;15.52;100.00;102663.06;5092609;28;20039;-44
2022/08/09 06:52:00;;;;;;;26.98;17.13;;;;;;;15.63;100.00;102662.66;5092251;28;20478;-46
2022/08/09 06:54:25;;;;;;;23.88;15.77;;;;;;;15.73;99.90;102663.88;5092879;28;20032;-45
2022/08/09 06:56:50;;;;;;;24.70;16.13;;;;;;;15.88;99.52;102663.59;5092503;28;20020;-44
2022/08/09 06:59:15;;;;;;;20.80;15.75;;;;;;;15.98;98.09;102653.53;5092011;28;20017;-45
2022/08/09 07:01:41;;;;;;;20.92;16.17;;;;;;;16.11;97.09;102669.66;5092791;28;20467;-46
2022/08/09 07:04:06;;;;;;;22.75;15.55;;;;;;;16.20;95.68;102676.00;5092622;28;20035;-45
2022/08/09 07:06:31;;;;;;;22.40;15.02;;;;;;;16.34;95.60;102682.56;5092279;28;20028;-45
2022/08/09 07:08:56;;;;;;;29.17;15.43;;;;;;;16.45;94.54;102678.63;5092403;28;20055;-46
2022/08/09 07:11:22;;;;;;;25.42;14.85;;;;;;;16.59;94.61;102684.31;5092615;28;20028;-44
2022/08/09 07:13:47;;;;;;;22.20;15.45;;;;;;;16.69;93.53;102685.50;5092053;28;20020;-46
2022/08/09 07:16:12;;;;;;;19.65;13.35;;;;;;;16.78;92.10;102683.22;5091944;28;20172;-45
2022/08/09 07:18:38;;;;;;;20.02;14.50;;;;;;;16.87;90.79;102682.63;5092766;28;20483;-44
2022/08/09 07:21:03;;;;;;;27.00;14.65;;;;;;;16.99;90.46;102684.78;5091893;28;20081;-45
2022/08/09 07:23:28;;;;;;;21.40;14.18;;;;;;;17.13;90.92;102684.34;5092346;28;20073;-46
2022/08/09 07:25:54;;;;;;;24.85;13.88;;;;;;;17.28;90.83;102675.28;5093392;28;20491;-45
2022/08/09 07:28:19;;;;;;;18.45;13.57;;;;;;;17.42;90.37;102680.91;5095917;28;20076;-45
2022/08/09 07:30:45;;;;;;;20.48;13.70;;;;;;;17.58;89.73;102678.78;5096046;28;20391;-44
2022/08/09 07:33:10;;;;;;;18.35;13.80;;;;;;;17.67;89.44;102684.25;5096249;28;20099;-45
2022/08/09 07:35:35;;;;;;;20.85;12.35;;;;;;;17.77;88.24;102686.31;5095948;28;20470;-46
2022/08/09 07:38:01;;;;;;;19.85;14.20;;;;;;;17.86;86.84;102684.81;5095977;28;20028;-44
2022/08/09 07:40:26;;;;;;;21.23;12.02;;;;;;;17.95;85.68;102682.50;5096203;28;20024;-44
2022/08/09 07:42:54;;;;;;;19.98;13.60;;;;;;;18.02;84.63;102681.81;5095677;28;20040;-46
2022/08/09 07:45:24;;;;;;;;;;;;;;;18.09;87.60;102691.59;5096037;28;20024;-44
2022/08/09 07:47:51;;;;;;;15.43;12.02;;;;;;;18.35;83.83;102686.19;5096319;28;19912;-48
2022/08/09 07:50:16;;;;;;;18.70;12.70;;;;;;;18.38;83.33;102683.66;5095413;28;20028;-46
2022/08/09 07:52:42;;;;;;;23.10;12.40;;;;;;;18.47;82.05;102685.63;5095880;28;20275;-45
2022/08/09 07:55:07;;;;;;;17.70;11.57;;;;;;;18.53;81.38;102685.81;5095130;28;20022;-47
2022/08/09 07:57:33;;;;;;;16.02;11.45;;;;;;;18.62;80.28;102687.78;5095801;28;20436;-46
2022/08/09 07:59:58;;;;;;;19.20;11.70;;;;;;;18.72;79.67;102681.03;5095492;28;20110;-46
2022/08/09 08:02:24;;;;;;;18.65;11.80;;;;;;;18.81;79.74;102688.22;5095073;28;20070;-45
2022/08/09 08:04:49;;;;;;;17.05;10.05;;;;;;;18.90;79.28;102699.84;5095517;28;20475;-46
2022/08/09 08:07:15;;;;;;;17.42;10.35;;;;;;;19.05;78.52;102696.69;5095397;28;20024;-45
2022/08/09 08:09:40;;;;;;;19.40;11.00;;;;;;;19.12;76.91;102689.91;5095109;28;20035;-45
2022/08/09 08:12:05;;;;;;;15.82;10.60;;;;;;;19.22;76.70;102689.28;5095268;28;20383;-46
2022/08/09 08:14:31;;;;;;;15.68;11.15;;;;;;;19.29;76.00;102692.91;5095587;28;20024;-49
2022/08/09 08:16:56;;;;;;;15.48;10.18;;;;;;;19.34;74.64;102693.00;5094833;28;20020;-48
2022/08/09 08:19:21;;;;;;;16.80;9.73;;;;;;;19.42;75.23;102694.94;5095310;28;20551;-50
2022/08/09 08:21:49;;;;;;;13.57;9.93;;;;;;;19.57;75.88;102697.03;5095561;28;20043;-47
2022/08/09 08:24:14;;;;;;;;;;;;;;;19.65;78.23;102691.97;5094950;28;20447;-45
2022/08/09 08:26:39;;;;;;;16.37;9.77;;;;;;;19.76;74.89;102686.06;5095178;28;19995;-47
2022/08/09 08:29:04;;;;;;;14.55;9.05;;;;;;;19.84;73.75;102684.50;5095050;28;20040;-45
2022/08/09 08:31:30;;;;;;;16.15;9.23;;;;;;;20.00;73.04;102676.13;5094896;28;20479;-48
2022/08/09 08:33:55;;;;;;;12.73;7.88;;;;;;;20.12;71.46;102680.72;5094873;28;20024;-45
2022/08/09 08:36:20;;;;;;;14.30;7.68;;;;;;;20.17;69.78;102678.19;5094880;28;20498;-45
2022/08/09 08:38:45;;;;;;;15.57;7.80;;;;;;;20.30;72.01;102680.16;5094623;28;20035;-45
2022/08/09 08:41:11;;;;;;;13.15;7.60;;;;;;;20.42;70.20;102683.88;5094772;28;20028;-48
2022/08/09 08:43:37;;;;;;;11.82;7.00;;;;;;;20.48;69.16;102689.22;5094773;28;20043;-46
2022/08/09 08:46:04;;;;;;;16.20;7.28;;;;;;;20.62;69.78;102682.47;5094353;28;20032;-45
2022/08/09 08:48:31;;;;;;;12.63;6.95;;;;;;;20.76;69.13;102690.63;5094935;28;20026;-45
2022/08/09 08:50:57;;;;;;;13.50;7.10;;;;;;;20.89;68.47;102694.31;5094825;28;20024;-46
2022/08/09 08:53:22;;;;;;;15.27;6.70;;;;;;;20.92;66.60;102683.88;5094228;28;20052;-46
2022/08/09 08:55:48;;;;;;;11.63;5.32;;;;;;;21.11;67.65;102692.00;5094463;28;20064;-45
2022/08/09 08:58:14;;;;;;;11.73;5.95;;;;;;;21.19;64.94;102701.75;5094332;28;20028;-49
2022/08/09 09:00:41;;;;;;;9.32;5.68;;;;;;;21.28;65.30;102706.28;5094985;28;20478;-48
2022/08/09 09:03:07;;;;;;;14.10;5.28;;;;;;;21.36;65.61;102707.25;5094067;28;20028;-46
2022/08/09 09:05:33;;;;;;;12.70;5.70;;;;;;;21.38;63.86;102704.66;5093925;28;20035;-45
2022/08/09 09:07:59;;;;;;;11.55;5.07;;;;;;;21.62;64.55;102701.50;5094221;28;20031;-47
2022/08/09 09:10:26;;;;;;;11.15;4.35;;;;;;;21.79;62.79;102708.72;5094522;28;20061;-46
2022/08/09 09:12:53;;;;;;;8.15;4.18;;;;;;;21.97;64.17;102706.31;5093918;28;20024;-48
2022/08/09 09:15:19;;;;;;;12.10;5.07;;;;;;;21.94;60.58;102703.66;5094303;28;20111;-46
2022/08/09 09:17:45;;;;;;;9.10;4.50;;;;;;;22.10;62.35;102712.59;5094577;28;20145;-45
2022/08/09 09:20:12;;;;;;;8.57;3.95;;;;;;;22.24;60.55;102709.25;5093611;28;20115;-46
2022/08/09 09:22:57;;;;;;;6.57;3.65;;;;;;;22.42;62.55;102716.47;5094118;28;20024;-46
2022/08/09 09:25:33;;;;;;;9.38;4.47;;;;;;;22.35;60.67;102719.00;5094183;28;20028;-47
2022/08/09 09:28:00;;;;;;;7.07;3.80;;;;;;;22.43;59.61;102716.47;5093720;28;20035;-45
2022/08/09 09:30:25;;;;;;;7.53;3.40;;;;;;;22.65;60.57;102714.94;5094009;28;20032;-48
2022/08/09 09:33:05;;;;;;;5.53;2.10;;;;;;;22.85;57.60;102719.47;5094270;28;20103;-48
2022/08/09 09:35:31;;;;;;;6.85;2.17;;;;;;;23.11;54.05;102718.78;5093493;28;20066;-45
2022/08/09 09:37:56;;;;;;;7.07;1.90;;;;;;;23.60;55.38;102703.34;5093613;28;20074;-45
2022/08/09 09:40:40;;;;;;;4.07;2.28;;;;;;;23.40;55.23;102705.00;5093970;28;20036;-46
2022/08/09 09:43:06;;;;;;;6.50;2.33;;;;;;;23.34;54.49;102700.56;5093342;28;20108;-45
2022/08/09 09:45:46;;;;;;;7.32;2.40;;;;;;;23.53;54.01;102696.28;5094125;28;20032;-46
2022/08/09 09:48:12;;;;;;;6.72;2.17;;;;;;;23.76;51.18;102704.28;5092478;28;20023;-44
2022/08/09 09:50:42;;;;;;;5.07;1.90;;;;;;;24.03;52.15;102696.50;5093417;28;20024;-45
2022/08/09 09:53:14;;;;;;;6.35;2.00;;;;;;;24.22;51.98;102703.59;5093409;28;20031;-45
2022/08/09 09:55:59;;;;;;;6.13;2.13;;;;;;;24.52;50.91;102701.88;5093251;28;20017;-45
2022/08/09 09:58:41;;;;;;;4.45;1.52;;;;;;;24.42;47.61;102697.47;5093371;28;20028;-45
2022/08/09 10:01:19;;;;;;;5.43;1.90;;;;;;;24.91;48.90;102705.41;5093242;28;20517;-44
2022/08/09 10:03:47;;;;;;;4.78;1.50;;;;;;;25.21;47.12;102708.88;5093065;28;20061;-45
2022/08/09 10:06:12;;;;;;;;;;;;;;;25.26;50.19;102707.09;5093514;28;20089;-47
2022/08/09 10:08:38;;;;;;;3.73;1.30;;;;;;;25.68;44.39;102708.75;5092982;28;20390;-45
2022/08/09 10:11:23;;;;;;;3.17;1.20;;;;;;;26.02;46.31;102706.84;5092855;28;20274;-49
2022/08/09 10:13:49;;;;;;;4.88;1.52;;;;;;;26.68;43.02;102704.66;5093650;28;20035;-47
2022/08/09 10:16:24;;;;;;;5.93;1.53;;;;;;;27.35;41.26;102707.56;5092892;28;20024;-46
2022/08/09 10:18:52;;;;;;;5.35;1.45;;;;;;;28.59;39.20;102710.25;5093217;28;20274;-46
2022/08/09 10:21:17;;;;;;;;;;;;;;;29.03;41.64;102699.78;5093470;28;20034;-45
2022/08/09 10:23:43;;;;;;;3.93;1.00;;;;;;;29.60;35.09;102712.91;5092667;28;19911;-46
2022/08/09 10:26:09;;;;;;;4.18;1.02;;;;;;;30.19;34.30;102699.19;5092865;28;20027;-48
2022/08/09 10:28:36;;;;;;;4.23;1.10;;;;;;;30.63;33.86;102702.56;5093222;28;20028;-47
2022/08/09 10:31:02;;;;;;;12.20;1.25;;;;;;;30.75;32.22;102700.50;5092521;28;20068;-48
2022/08/09 10:33:27;;;;;;;3.38;1.17;;;;;;;31.15;32.05;102700.31;5092826;28;20047;-46
2022/08/09 10:35:53;;;;;;;4.55;0.90;;;;;;;31.20;31.77;102693.06;5093001;28;20107;-43
2022/08/09 10:38:19;;;;;;;5.07;0.90;;;;;;;32.08;30.77;102691.38;5092373;28;20028;-43
2022/08/09 10:40:45;;;;;;;1.67;0.75;;;;;;;32.37;30.48;102693.13;5093045;28;20032;-45
2022/08/09 10:43:11;;;;;;;3.13;1.00;;;;;;;32.92;29.17;102684.13;5092689;28;20039;-45
2022/08/09 10:45:40;;;;;;;4.18;1.17;;;;;;;33.27;27.76;102685.53;5092372;28;20476;-43
2022/08/09 10:48:36;;;;;;;3.47;0.70;;;;;;;33.62;29.78;102691.34;5092352;28;20032;-43
2022/08/09 10:51:13;;;;;;;;;;;;;;;33.95;29.01;102693.59;5048451;28;20071;-43
2022/08/09 10:53:59;;;;;;;2.55;0.70;;;;;;;33.06;29.20;102676.47;5092729;28;19912;-46
2022/08/09 10:56:32;;;;;;;2.60;0.60;;;;;;;32.66;27.81;102670.72;5092658;28;20477;-44
2022/08/09 10:58:58;;;;;;;2.63;0.70;;;;;;;32.72;28.20;102675.00;5092007;28;20031;-45
2022/08/09 11:01:34;;;;;;;1.85;0.50;;;;;;;33.17;28.88;102673.44;5096184;28;20020;-45
2022/08/09 11:04:19;;;;;;;3.08;0.77;;;;;;;33.17;28.24;102665.41;5097025;28;20086;-44
2022/08/09 11:06:47;;;;;;;4.78;0.75;;;;;;;33.02;27.22;102677.53;5096559;28;20036;-42
2022/08/09 11:09:16;;;;;;;4.53;1.08;;;;;;;33.38;26.93;102671.75;5096347;28;20099;-45
2022/08/09 11:11:57;;;;;;;3.95;1.00;;;;;;;33.91;27.27;102681.28;5096976;28;20016;-43
2022/08/09 11:14:53;;;;;;;5.32;0.75;;;;;;;34.09;27.61;102682.34;5096671;28;20133;-46